createdAt,value
2022-09-16T00:00:15.467Z,98.69
2022-09-16T00:03:18.126Z,98.88
2022-09-16T00:06:23.728Z,98.99
2022-09-16T00:09:25.420Z,98.72
2022-09-16T00:12:27.147Z,98.57
2022-09-16T00:15:28.860Z,98.07
2022-09-16T00:18:30.542Z,97.66
2022-09-16T00:21:32.541Z,97.98
2022-09-16T00:24:34.170Z,97.31
2022-09-16T00:27:35.932Z,97.37
2022-09-16T00:30:37.581Z,97.04
2022-09-16T00:33:39.267Z,96.90
2022-09-16T00:36:40.934Z,97.74
2022-09-16T00:39:42.736Z,95.51
2022-09-16T00:42:44.409Z,95.20
2022-09-16T00:45:54.752Z,96.33
2022-09-16T00:48:58.722Z,95.98
2022-09-16T00:52:04.415Z,97.28
2022-09-16T00:55:10.104Z,97.08
2022-09-16T00:58:29.284Z,96.65
2022-09-16T01:01:32.074Z,96.41
2022-09-16T01:04:41.545Z,96.38
2022-09-16T01:07:46.048Z,96.00
2022-09-16T01:10:47.771Z,96.74
2022-09-16T01:13:50.282Z,97.16
2022-09-16T01:17:05.719Z,97.36
2022-09-16T01:20:31.815Z,97.55
2022-09-16T01:24:10.634Z,96.91
2022-09-16T01:27:30.272Z,96.72
2022-09-16T01:30:59.172Z,96.42
2022-09-16T01:34:39.222Z,96.17
2022-09-16T01:38:14.584Z,96.14
2022-09-16T01:41:28.848Z,95.47
2022-09-16T01:44:46.087Z,95.21
2022-09-16T01:48:06.785Z,95.40
2022-09-16T01:51:42.376Z,95.37
2022-09-16T01:54:53.995Z,94.98
2022-09-16T01:58:03.366Z,94.44
2022-09-16T02:01:12.887Z,94.65
2022-09-16T02:04:24.036Z,94.64
2022-09-16T02:07:34.146Z,95.09
2022-09-16T02:10:43.834Z,93.81
2022-09-16T02:13:51.830Z,94.23
2022-09-16T02:17:05.508Z,93.98
2022-09-16T02:20:14.759Z,93.66
2022-09-16T02:23:22.168Z,93.17
2022-09-16T02:26:36.986Z,92.41
2022-09-16T02:29:44.642Z,91.88
2022-09-16T02:32:52.206Z,92.50
2022-09-16T02:35:55.549Z,93.14
2022-09-16T02:39:05.773Z,93.06
2022-09-16T02:42:08.033Z,92.43
2022-09-16T02:45:10.277Z,93.25
2022-09-16T02:48:21.366Z,93.48
2022-09-16T02:51:32.016Z,92.89
2022-09-16T02:54:45.189Z,93.15
2022-09-16T02:57:47.076Z,94.50
2022-09-16T03:00:53.314Z,94.88
2022-09-16T03:03:55.225Z,94.25
2022-09-16T03:06:57.227Z,94.56
2022-09-16T03:09:59.087Z,94.32
2022-09-16T03:13:28.825Z,92.82
2022-09-16T03:16:53.218Z,93.81
2022-09-16T03:20:30.168Z,94.32
2022-09-16T03:24:07.629Z,95.32
2022-09-16T03:27:11.697Z,95.31
2022-09-16T03:30:13.581Z,95.38
2022-09-16T03:33:34.742Z,94.51
2022-09-16T03:36:41.473Z,93.81
2022-09-16T03:39:47.849Z,93.16
2022-09-16T03:42:52.482Z,91.70
2022-09-16T03:45:54.266Z,92.31
2022-09-16T03:48:57.254Z,92.75
2022-09-16T03:51:59.314Z,93.57
2022-09-16T03:55:00.992Z,93.04
2022-09-16T03:58:02.695Z,92.32
2022-09-16T04:01:04.937Z,90.86
2022-09-16T04:04:06.755Z,90.25
2022-09-16T04:07:08.476Z,90.51
2022-09-16T04:10:18.796Z,91.23
2022-09-16T04:13:20.440Z,92.12
2022-09-16T04:16:22.314Z,92.57
2022-09-16T04:19:24.853Z,92.49
2022-09-16T04:22:30.791Z,92.48
2022-09-16T04:25:32.476Z,95.47
2022-09-16T04:28:34.336Z,98.42
2022-09-16T04:31:36.103Z,100.00
2022-09-16T04:34:37.775Z,100.00
2022-09-16T04:37:39.423Z,100.00
2022-09-16T04:40:41.081Z,100.00
2022-09-16T04:43:42.727Z,100.00
2022-09-16T04:46:44.484Z,100.00
2022-09-16T04:49:46.189Z,100.00
2022-09-16T04:52:48.048Z,100.00
2022-09-16T04:55:49.910Z,100.00
2022-09-16T04:58:54.846Z,100.00
2022-09-16T05:01:57.206Z,100.00
2022-09-16T05:04:59.122Z,100.00
2022-09-16T05:08:01.092Z,100.00
2022-09-16T05:11:09.363Z,100.00
2022-09-16T05:14:15.955Z,100.00
2022-09-16T05:17:39.458Z,100.00
2022-09-16T05:20:39.525Z,100.00
2022-09-16T05:23:44.534Z,100.00
2022-09-16T05:26:48.316Z,100.00
2022-09-16T05:29:50.159Z,100.00
2022-09-16T05:32:55.365Z,100.00
2022-09-16T05:36:06.405Z,100.00
2022-09-16T05:39:25.020Z,100.00
2022-09-16T05:42:27.334Z,100.00
2022-09-16T05:45:32.401Z,100.00
2022-09-16T05:48:36.438Z,100.00
2022-09-16T05:51:41.478Z,100.00
2022-09-16T05:54:44.603Z,100.00
2022-09-16T05:57:46.484Z,100.00
2022-09-16T06:00:48.480Z,100.00
2022-09-16T06:03:52.025Z,100.00
2022-09-16T06:06:53.935Z,100.00
2022-09-16T06:09:55.867Z,100.00
2022-09-16T06:12:57.672Z,100.00
2022-09-16T06:15:59.775Z,100.00
2022-09-16T06:19:03.812Z,100.00
2022-09-16T06:22:16.481Z,100.00
2022-09-16T06:25:18.778Z,100.00
2022-09-16T06:28:21.166Z,100.00
2022-09-16T06:31:26.310Z,100.00
2022-09-16T06:34:28.307Z,100.00
2022-09-16T06:37:30.505Z,100.00
2022-09-16T06:40:32.480Z,100.00
2022-09-16T06:43:35.174Z,100.00
2022-09-16T06:46:39.806Z,100.00
2022-09-16T06:49:44.803Z,100.00
2022-09-16T06:52:54.486Z,100.00
2022-09-16T06:56:04.812Z,100.00
2022-09-16T06:59:07.943Z,100.00
2022-09-16T07:02:11.778Z,100.00
2022-09-16T07:05:13.889Z,100.00
2022-09-16T07:08:16.094Z,100.00
2022-09-16T07:11:25.234Z,100.00
2022-09-16T07:14:28.381Z,100.00
2022-09-16T07:17:30.376Z,100.00
2022-09-16T07:20:32.260Z,100.00
2022-09-16T07:23:35.364Z,100.00
2022-09-16T07:26:39.891Z,100.00
2022-09-16T07:29:47.177Z,100.00
2022-09-16T07:33:01.427Z,100.00
2022-09-16T07:36:37.778Z,100.00
2022-09-16T07:39:44.521Z,100.00
2022-09-16T07:42:54.200Z,100.00
2022-09-16T07:46:00.734Z,100.00
2022-09-16T07:49:12.159Z,100.00
2022-09-16T07:52:17.405Z,100.00
2022-09-16T07:55:27.829Z,100.00
2022-09-16T08:03:13.196Z,100.00
2022-09-16T08:06:21.016Z,100.00
2022-09-16T08:22:40.401Z,100.00
2022-09-16T08:25:46.341Z,100.00
2022-09-16T08:29:07.976Z,100.00
2022-09-16T08:32:11.667Z,100.00
2022-09-16T08:35:14.523Z,100.00
2022-09-16T08:38:16.277Z,99.37
2022-09-16T08:41:26.803Z,99.02
2022-09-16T08:44:51.966Z,98.24
2022-09-16T08:48:10.046Z,97.84
2022-09-16T08:51:19.837Z,95.14
2022-09-16T08:54:31.182Z,95.72
2022-09-16T08:57:40.153Z,94.58
2022-09-16T09:00:49.815Z,91.78
2022-09-16T09:03:51.698Z,93.57
2022-09-16T09:07:16.977Z,92.63
2022-09-16T09:10:47.723Z,94.67
2022-09-16T09:14:04.506Z,93.05
2022-09-16T09:17:21.384Z,91.58
2022-09-16T09:20:50.502Z,89.97
2022-09-16T09:24:20.075Z,89.03
2022-09-16T09:27:40.760Z,88.57
2022-09-16T09:30:49.324Z,86.88
2022-09-16T09:34:09.072Z,88.11
2022-09-16T09:37:36.347Z,86.41
2022-09-16T09:40:49.196Z,83.85
2022-09-16T09:44:15.579Z,84.90
2022-09-16T09:47:33.245Z,83.34
2022-09-16T09:50:45.164Z,82.87
2022-09-16T09:53:53.212Z,83.19
2022-09-16T09:57:16.721Z,84.96
2022-09-16T10:00:22.095Z,84.67
2022-09-16T10:03:24.943Z,85.68
2022-09-16T10:06:30.719Z,85.94
2022-09-16T10:09:33.803Z,85.20
2022-09-16T10:12:36.637Z,84.85
2022-09-16T10:15:39.432Z,86.39
2022-09-16T10:18:41.803Z,84.97
2022-09-16T10:21:51.086Z,85.36
2022-09-16T10:24:57.182Z,85.96
2022-09-16T10:28:26.347Z,84.75
2022-09-16T10:31:34.824Z,85.73
2022-09-16T10:34:40.271Z,87.55
2022-09-16T10:37:51.846Z,86.62
2022-09-16T10:40:58.064Z,84.79
2022-09-16T10:44:01.394Z,84.75
2022-09-16T10:47:08.407Z,84.53
2022-09-16T10:50:19.550Z,81.99
2022-09-16T10:53:26.294Z,81.28
2022-09-16T10:56:49.239Z,83.12
2022-09-16T10:59:58.166Z,81.83
2022-09-16T11:03:15.408Z,80.43
2022-09-16T11:06:51.028Z,77.42
2022-09-16T11:09:57.474Z,79.73
2022-09-16T11:13:36.962Z,73.87
2022-09-16T11:17:17.488Z,74.47
2022-09-16T11:20:43.506Z,75.76
2022-09-16T11:24:17.295Z,76.29
2022-09-16T11:27:52.768Z,76.11
2022-09-16T11:31:17.116Z,76.10
2022-09-16T11:34:52.355Z,76.23
2022-09-16T11:38:19.162Z,75.02
2022-09-16T11:41:37.599Z,76.57
2022-09-16T11:45:29.382Z,76.38
2022-09-16T11:48:59.803Z,77.18
2022-09-16T11:52:21.511Z,76.57
2022-09-16T11:55:43.917Z,77.51
2022-09-16T11:58:50.404Z,74.74
2022-09-16T12:02:03.453Z,75.87
2022-09-16T12:05:23.185Z,68.79
2022-09-16T12:08:53.231Z,68.66
2022-09-16T12:12:05.779Z,72.31
2022-09-16T12:15:19.117Z,68.48
2022-09-16T12:18:33.325Z,67.08
2022-09-16T12:21:42.963Z,63.91
2022-09-16T12:25:06.606Z,64.21
2022-09-16T12:28:17.673Z,63.46
2022-09-16T12:31:24.231Z,64.86
2022-09-16T12:34:29.683Z,65.08
2022-09-16T12:37:45.978Z,67.09
2022-09-16T12:40:58.039Z,63.31
2022-09-16T12:44:34.285Z,63.31
2022-09-16T12:48:24.756Z,63.82
2022-09-16T12:51:45.907Z,62.39
2022-09-16T12:55:25.737Z,57.63
2022-09-16T12:58:52.396Z,56.32
2022-09-16T13:02:01.784Z,55.26
2022-09-16T13:05:14.637Z,55.37
2022-09-16T13:08:26.689Z,48.85
2022-09-16T13:14:54.881Z,50.05
2022-09-16T13:18:09.151Z,52.08
2022-09-16T13:21:20.806Z,50.85
2022-09-16T13:24:36.726Z,51.03
2022-09-16T13:27:40.589Z,51.31
2022-09-16T13:30:42.504Z,52.85
2022-09-16T13:33:46.883Z,51.88
2022-09-16T13:36:48.687Z,51.04
2022-09-16T13:39:50.547Z,54.69
2022-09-16T13:43:23.806Z,51.78
2022-09-16T13:46:38.194Z,53.93
2022-09-16T13:49:53.465Z,52.58
2022-09-16T13:52:55.290Z,53.97
2022-09-16T13:56:07.273Z,53.19
2022-09-16T13:59:37.360Z,51.93
2022-09-16T14:03:06.135Z,53.76
2022-09-16T14:06:23.621Z,54.88
2022-09-16T14:09:45.495Z,52.38
2022-09-16T14:13:17.561Z,56.19
2022-09-16T14:16:26.313Z,54.79
2022-09-16T14:19:32.957Z,54.18
2022-09-16T14:22:35.018Z,54.81
2022-09-16T14:25:38.708Z,56.42
2022-09-16T14:28:40.703Z,55.74
2022-09-16T14:31:45.352Z,55.19
2022-09-16T14:34:50.467Z,56.63
2022-09-16T14:38:03.783Z,56.19
2022-09-16T14:41:07.827Z,56.21
2022-09-16T14:44:18.803Z,55.66
2022-09-16T14:47:47.366Z,55.45
2022-09-16T14:50:52.001Z,56.17
2022-09-16T14:54:12.218Z,56.65
2022-09-16T14:57:23.176Z,57.26
2022-09-16T15:00:49.247Z,57.62
2022-09-16T15:04:05.106Z,56.77
2022-09-16T15:07:15.932Z,58.72
2022-09-16T15:10:26.948Z,57.97
2022-09-16T15:13:35.499Z,57.34
2022-09-16T15:16:49.832Z,58.40
2022-09-16T15:19:58.240Z,57.47
2022-09-16T15:23:02.818Z,59.20
2022-09-16T15:26:18.818Z,58.30
2022-09-16T15:29:20.737Z,58.51
2022-09-16T15:32:27.528Z,58.32
2022-09-16T15:35:35.635Z,56.71
2022-09-16T15:38:40.953Z,59.07
2022-09-16T15:41:45.540Z,57.60
2022-09-16T15:44:50.224Z,58.13
2022-09-16T15:47:56.941Z,57.27
2022-09-16T15:51:08.292Z,58.14
2022-09-16T15:54:31.300Z,55.16
2022-09-16T15:57:36.097Z,56.96
2022-09-16T16:01:13.398Z,54.05
2022-09-16T16:04:25.512Z,55.60
2022-09-16T16:07:41.144Z,57.28
2022-09-16T16:10:44.820Z,56.27
2022-09-16T16:13:47.535Z,56.92
2022-09-16T16:17:11.095Z,56.10
2022-09-16T16:20:13.484Z,58.08
2022-09-16T16:23:15.159Z,58.33
2022-09-16T16:26:17.128Z,58.66
2022-09-16T16:29:18.759Z,59.28
2022-09-16T16:32:20.353Z,59.95
2022-09-16T16:35:21.977Z,60.46
2022-09-16T16:38:23.645Z,60.27
2022-09-16T16:41:25.815Z,60.30
2022-09-16T16:44:27.785Z,59.76
2022-09-16T16:47:29.400Z,60.86
2022-09-16T16:50:31.111Z,58.99
2022-09-16T16:53:32.929Z,59.18
2022-09-16T16:56:34.600Z,58.34
2022-09-16T16:59:36.551Z,57.42
2022-09-16T17:02:38.174Z,59.19
2022-09-16T17:05:39.943Z,59.87
2022-09-16T17:08:41.714Z,60.85
2022-09-16T17:11:55.227Z,62.03
2022-09-16T17:14:56.904Z,62.18
2022-09-16T17:17:58.611Z,62.74
2022-09-16T17:21:09.056Z,64.08
2022-09-16T17:24:11.130Z,63.89
2022-09-16T17:27:14.690Z,64.11
2022-09-16T17:30:16.987Z,63.80
2022-09-16T17:33:18.643Z,63.14
2022-09-16T17:36:22.244Z,64.33
2022-09-16T17:39:24.180Z,63.82
2022-09-16T17:42:25.920Z,64.95
2022-09-16T17:45:27.561Z,63.97
2022-09-16T17:48:29.976Z,63.67
2022-09-16T17:51:33.000Z,63.91
2022-09-16T17:54:34.655Z,63.75
2022-09-16T17:57:36.287Z,65.13
2022-09-16T18:00:38.340Z,64.99
2022-09-16T18:03:42.429Z,65.47
2022-09-16T18:06:46.136Z,66.05
2022-09-16T18:09:47.779Z,67.06
2022-09-16T18:12:49.502Z,68.38
2022-09-16T18:15:51.121Z,68.67
2022-09-16T18:18:55.773Z,67.70
2022-09-16T18:21:57.481Z,68.42
2022-09-16T18:24:59.253Z,67.59
2022-09-16T18:28:00.891Z,66.98
2022-09-16T18:31:05.188Z,67.29
2022-09-16T18:34:07.359Z,66.84
2022-09-16T18:37:09.145Z,66.16
2022-09-16T18:40:11.335Z,66.93
2022-09-16T18:43:13.009Z,65.91
2022-09-16T18:46:26.513Z,67.31
2022-09-16T18:49:30.198Z,67.32
2022-09-16T18:52:32.074Z,67.96
2022-09-16T18:55:33.783Z,68.60
2022-09-16T18:58:35.489Z,67.79
2022-09-16T19:01:38.719Z,68.41
2022-09-16T19:04:42.517Z,69.73
2022-09-16T19:07:44.289Z,71.46
2022-09-16T19:10:45.910Z,71.02
2022-09-16T19:13:47.601Z,70.10
2022-09-16T19:16:49.461Z,71.42
2022-09-16T19:19:51.210Z,72.39
2022-09-16T19:22:52.931Z,71.42
2022-09-16T19:26:01.063Z,70.74
2022-09-16T19:29:06.791Z,70.22
2022-09-16T19:32:08.695Z,69.95
2022-09-16T19:35:10.439Z,70.16
2022-09-16T19:38:12.169Z,69.14
2022-09-16T19:41:14.697Z,70.16
2022-09-16T19:44:17.937Z,70.90
2022-09-16T19:47:19.683Z,69.53
2022-09-16T19:50:21.289Z,70.18
2022-09-16T19:53:22.874Z,71.60
2022-09-16T19:56:27.177Z,71.95
2022-09-16T19:59:28.965Z,70.74
2022-09-16T20:02:30.625Z,71.75
2022-09-16T20:05:32.442Z,70.81
2022-09-16T20:08:36.789Z,71.19
2022-09-16T20:11:42.878Z,71.13
2022-09-16T20:14:44.481Z,72.55
2022-09-16T20:17:46.289Z,73.78
2022-09-16T20:20:49.359Z,74.10
2022-09-16T20:23:52.220Z,74.57
2022-09-16T20:26:56.005Z,73.96
2022-09-16T20:29:57.699Z,73.78
2022-09-16T20:32:59.333Z,74.30
2022-09-16T20:36:06.587Z,74.79
2022-09-16T20:39:09.158Z,74.59
2022-09-16T20:42:10.902Z,73.81
2022-09-16T20:45:12.836Z,73.61
2022-09-16T20:48:14.526Z,74.12
2022-09-16T20:51:19.128Z,74.71
2022-09-16T20:54:20.855Z,75.44
2022-09-16T20:57:22.606Z,75.20
2022-09-16T21:00:24.286Z,76.02
2022-09-16T21:03:25.949Z,76.15
2022-09-16T21:06:29.218Z,76.82
2022-09-16T21:09:30.991Z,76.17
2022-09-16T21:12:32.663Z,76.06
2022-09-16T21:15:34.270Z,75.60
2022-09-16T21:18:35.929Z,75.84
2022-09-16T21:21:40.468Z,75.54
2022-09-16T21:24:42.589Z,76.92
2022-09-16T21:27:44.170Z,76.82
2022-09-16T21:30:45.955Z,76.64
2022-09-16T21:33:52.019Z,76.35
2022-09-16T21:36:53.768Z,76.58
2022-09-16T21:39:55.486Z,77.16
2022-09-16T21:42:57.240Z,77.76
2022-09-16T21:45:59.578Z,77.47
2022-09-16T21:49:03.274Z,77.67
2022-09-16T21:52:05.202Z,77.12
2022-09-16T21:55:07.237Z,77.40
2022-09-16T21:58:09.173Z,77.99
2022-09-16T22:01:20.399Z,77.65
2022-09-16T22:04:24.376Z,77.60
2022-09-16T22:07:26.076Z,77.37
2022-09-16T22:10:29.240Z,77.49
2022-09-16T22:13:32.383Z,74.81
2022-09-16T22:16:37.505Z,75.29
2022-09-16T22:19:39.231Z,77.01
2022-09-16T22:22:40.905Z,75.17
2022-09-16T22:25:42.508Z,75.37
2022-09-16T22:28:44.316Z,76.15
2022-09-16T22:31:46.299Z,75.97
2022-09-16T22:34:49.536Z,75.97
2022-09-16T22:37:51.464Z,76.16
2022-09-16T22:40:53.345Z,78.17
2022-09-16T22:43:55.329Z,78.36
2022-09-16T22:46:57.131Z,78.21
2022-09-16T22:49:59.170Z,76.82
2022-09-16T22:53:01.180Z,77.48
2022-09-16T22:56:07.844Z,77.83
2022-09-16T22:59:16.362Z,77.22
2022-09-16T23:02:17.961Z,76.52
2022-09-16T23:05:19.677Z,76.07
2022-09-16T23:08:21.647Z,76.24
2022-09-16T23:11:26.370Z,75.81
2022-09-16T23:14:28.150Z,76.61
2022-09-16T23:17:29.831Z,75.90
2022-09-16T23:20:32.140Z,76.92
2022-09-16T23:23:39.661Z,76.23
2022-09-16T23:26:41.648Z,75.37
2022-09-16T23:29:43.390Z,76.08
2022-09-16T23:32:45.348Z,75.86
2022-09-16T23:35:49.950Z,76.15
2022-09-16T23:38:53.019Z,76.83
2022-09-16T23:41:54.684Z,76.62
2022-09-16T23:44:56.426Z,76.91
2022-09-16T23:47:58.223Z,76.26
2022-09-16T23:50:59.939Z,76.89
2022-09-16T23:54:01.628Z,77.40
2022-09-16T23:57:03.457Z,77.07
